Time;durP1;ratioP1;P1;durP2;ratioP2;P2;SDS_P1;SDS_P2;PMS_P1;PMS_P2;Temp;Humidity;BMP_temperature;BMP_pressure;BME280_temperature;BME280_humidity;BME280_pressure;Samples;Min_cycle;Max_cycle;Signal;HPM_P1;HPM_P2
2022/07/05 00:00:45;;;;;;;1.45;0.50;;;18.20;48.40;;;;;;4942008;28;20130;-75
2022/07/05 00:03:11;;;;;;;0.73;0.50;;;18.10;48.30;;;;;;4941393;28;20358;-77
2022/07/05 00:05:37;;;;;;;0.80;0.60;;;18.10;48.40;;;;;;4922205;28;20047;-76
2022/07/05 00:08:04;;;;;;;0.50;0.47;;;18.00;48.30;;;;;;4941386;28;20039;-75
2022/07/05 00:10:34;;;;;;;2.67;0.50;;;18.00;48.40;;;;;;4940521;28;20651;-76
2022/07/05 00:13:01;;;;;;;1.10;0.70;;;17.90;48.40;;;;;;4915552;29;20034;-76
2022/07/05 00:15:26;;;;;;;0.70;0.50;;;17.90;48.40;;;;;;4938434;28;20599;-75
2022/07/05 00:17:52;;;;;;;0.55;0.50;;;17.80;48.40;;;;;;4904393;29;20020;-77
2022/07/05 00:20:18;;;;;;;0.98;0.65;;;17.70;48.30;;;;;;4937922;28;20034;-76
2022/07/05 00:22:44;;;;;;;1.77;0.50;;;17.70;48.40;;;;;;4934960;28;20035;-77
2022/07/05 00:25:14;;;;;;;2.35;1.23;;;17.60;48.30;;;;;;4940347;28;20047;-77
2022/07/05 00:27:40;;;;;;;0.60;0.50;;;17.60;48.40;;;;;;4915736;29;20031;-76
2022/07/05 00:30:06;;;;;;;1.30;0.63;;;17.50;48.30;;;;;;4918093;29;20260;-77
2022/07/05 00:32:32;;;;;;;0.70;0.70;;;17.50;48.40;;;;;;4915307;29;20032;-76
2022/07/05 00:34:58;;;;;;;1.35;0.40;;;17.40;48.40;;;;;;4941915;28;20050;-76
2022/07/05 00:37:24;;;;;;;1.30;0.52;;;17.30;48.30;;;;;;4941993;28;20134;-77
2022/07/05 00:39:50;;;;;;;0.80;0.55;;;17.30;48.40;;;;;;4926983;29;20316;-76
2022/07/05 00:42:16;;;;;;;2.83;0.60;;;17.20;48.30;;;;;;4915263;29;20036;-76
2022/07/05 00:44:42;;;;;;;1.50;0.55;;;17.20;48.40;;;;;;4939958;28;20098;-77
2022/07/05 00:47:11;;;;;;;0.60;0.55;;;17.10;48.30;;;;;;4934257;28;20035;-77
2022/07/05 00:49:39;;;;;;;0.80;0.60;;;17.00;48.30;;;;;;4943990;28;20037;-77
2022/07/05 00:52:05;;;;;;;0.75;0.68;;;17.00;48.40;;;;;;4937909;28;20034;-76
2022/07/05 00:54:36;;;;;;;1.13;0.57;;;17.00;48.50;;;;;;4938045;28;20058;-76
2022/07/05 00:57:03;;;;;;;1.63;0.60;;;16.90;48.50;;;;;;4925274;29;20093;-76
2022/07/05 00:59:30;;;;;;;0.70;0.70;;;16.80;48.40;;;;;;4916326;29;20414;-77
2022/07/05 01:01:56;;;;;;;3.28;0.63;;;16.80;48.40;;;;;;4942657;28;20031;-75
2022/07/05 01:04:23;;;;;;;1.25;0.60;;;16.80;48.60;;;;;;4944796;28;20097;-76
2022/07/05 01:06:50;;;;;;;2.58;0.50;;;16.70;48.50;;;;;;4925679;29;20489;-76
2022/07/05 01:09:18;;;;;;;0.90;0.60;;;16.70;48.60;;;;;;4943725;28;20039;-77
2022/07/05 01:11:45;;;;;;;0.88;0.50;;;16.60;48.50;;;;;;4942958;28;20190;-76
2022/07/05 01:14:20;;;;;;;3.33;0.60;;;16.50;48.50;;;;;;4940359;28;20481;-77
2022/07/05 01:16:46;;;;;;;1.50;0.55;;;16.50;48.60;;;;;;4939518;28;20051;-78
2022/07/05 01:19:13;;;;;;;1.83;0.80;;;16.50;48.60;;;;;;4926534;28;20031;-77
2022/07/05 01:21:44;;;;;;;0.80;0.70;;;16.40;48.60;;;;;;4944683;28;20039;-76
2022/07/05 01:24:13;;;;;;;0.80;0.80;;;16.40;48.70;;;;;;4931924;28;20050;-75
2022/07/05 01:26:40;;;;;;;1.65;0.93;;;16.30;49.20;;;;;;4923710;29;20083;-75
2022/07/05 01:29:08;;;;;;;0.70;0.60;;;16.30;48.80;;;;;;4921248;28;20120;-76
2022/07/05 01:31:40;;;;;;;1.80;0.55;;;16.30;48.80;;;;;;4940598;28;20074;-76
2022/07/05 01:34:07;;;;;;;1.20;0.68;;;16.20;48.70;;;;;;4941262;28;20039;-77
2022/07/05 01:36:34;;;;;;;0.90;0.80;;;16.10;48.60;;;;;;4948008;28;20798;-77
2022/07/05 01:39:05;;;;;;;1.00;0.80;;;16.10;48.70;;;;;;4943273;28;20036;-77
2022/07/05 01:41:32;;;;;;;1.27;0.70;;;16.00;48.70;;;;;;4942580;28;20074;-76
2022/07/05 01:43:59;;;;;;;2.20;1.10;;;16.00;48.70;;;;;;4927592;29;20379;-77
2022/07/05 01:46:28;;;;;;;1.10;0.80;;;15.90;48.70;;;;;;4919213;29;20075;-76
2022/07/05 01:48:58;;;;;;;2.00;0.80;;;15.80;48.60;;;;;;4925576;29;20059;-76
2022/07/05 01:51:54;;;;;;;0.70;0.60;;;15.80;48.70;;;;;;4930318;29;20020;-77
2022/07/05 01:54:20;;;;;;;1.48;0.90;;;15.80;48.90;;;;;;4927860;29;20150;-76
2022/07/05 01:56:46;;;;;;;1.38;0.80;;;15.80;48.80;;;;;;4930691;29;20115;-76
2022/07/05 01:59:12;;;;;;;1.10;0.80;;;15.70;48.70;;;;;;4926295;29;20032;-76
2022/07/05 02:01:39;;;;;;;2.30;0.90;;;15.70;48.80;;;;;;4930925;29;20023;-77
2022/07/05 02:04:07;;;;;;;2.88;0.82;;;15.60;48.70;;;;;;4925207;29;20034;-77
2022/07/05 02:06:33;;;;;;;1.95;0.70;;;15.60;48.80;;;;;;4925414;29;20036;-76
2022/07/05 02:09:01;;;;;;;2.28;1.00;;;15.60;48.90;;;;;;4930078;29;20031;-76
2022/07/05 02:11:27;;;;;;;1.17;0.80;;;15.50;48.80;;;;;;4930884;29;20419;-77
2022/07/05 02:13:54;;;;;;;2.80;0.60;;;15.50;48.90;;;;;;4923080;29;20030;-77
2022/07/05 02:16:24;;;;;;;1.10;0.80;;;15.50;48.90;;;;;;4919846;29;20411;-77
2022/07/05 02:18:50;;;;;;;1.65;0.88;;;15.50;49.00;;;;;;4925899;29;20024;-76
2022/07/05 02:21:17;;;;;;;4.03;0.90;;;15.40;48.90;;;;;;4924283;29;20123;-77
2022/07/05 02:23:45;;;;;;;0.93;0.80;;;15.40;49.00;;;;;;4928200;29;20047;-77
2022/07/05 02:26:11;;;;;;;2.08;0.80;;;15.30;48.90;;;;;;4926722;29;20494;-77
2022/07/05 02:28:40;;;;;;;0.82;0.70;;;15.30;49.00;;;;;;4929896;29;20019;-76
2022/07/05 02:31:07;;;;;;;2.03;0.98;;;15.20;49.00;;;;;;4925173;29;20048;-77
2022/07/05 02:33:33;;;;;;;0.77;0.70;;;15.20;49.00;;;;;;4919910;29;20075;-77
2022/07/05 02:36:10;;;;;;;0.93;0.77;;;15.10;49.50;;;;;;4924340;29;20047;-77
2022/07/05 02:38:37;;;;;;;1.10;0.70;;;15.10;49.10;;;;;;4912542;29;20031;-77
2022/07/05 02:41:07;;;;;;;2.60;1.10;;;15.10;49.10;;;;;;4927900;29;20032;-77
2022/07/05 02:43:35;;;;;;;3.47;1.00;;;15.10;49.30;;;;;;4922346;29;20600;-77
2022/07/05 02:46:02;;;;;;;1.20;0.75;;;15.00;49.10;;;;;;4914508;29;20548;-76
2022/07/05 02:48:29;;;;;;;1.25;0.90;;;15.00;49.20;;;;;;4925396;29;20091;-77
2022/07/05 02:50:55;;;;;;;1.38;1.05;;;14.90;49.10;;;;;;4925625;29;20064;-76
2022/07/05 02:53:25;;;;;;;1.75;0.82;;;14.80;49.00;;;;;;4929308;29;20087;-77
2022/07/05 02:55:51;;;;;;;1.42;0.73;;;14.90;49.30;;;;;;4924167;29;20471;-76
2022/07/05 02:58:18;;;;;;;1.13;0.80;;;14.80;49.20;;;;;;4929682;29;20028;-77
2022/07/05 03:00:47;;;;;;;1.38;0.90;;;14.80;49.30;;;;;;4921722;29;20035;-77
2022/07/05 03:03:14;;;;;;;1.50;0.90;;;14.80;49.40;;;;;;4918636;29;20371;-79
2022/07/05 03:05:41;;;;;;;2.00;0.90;;;14.70;49.30;;;;;;4921151;29;20591;-77
2022/07/05 03:08:07;;;;;;;0.95;0.77;;;14.70;49.30;;;;;;4928104;29;20035;-77
2022/07/05 03:10:36;;;;;;;2.40;0.68;;;14.60;49.20;;;;;;4923037;29;20038;-76
2022/07/05 03:13:04;;;;;;;1.45;0.80;;;14.60;49.30;;;;;;4916435;29;20028;-77
2022/07/05 03:15:30;;;;;;;0.80;0.65;;;14.60;49.40;;;;;;4914493;29;20071;-76
2022/07/05 03:17:57;;;;;;;1.65;0.70;;;14.60;49.50;;;;;;4922682;29;20036;-78
2022/07/05 03:20:25;;;;;;;1.40;0.60;;;14.60;49.50;;;;;;4918112;29;20176;-77
2022/07/05 03:22:51;;;;;;;1.65;0.75;;;14.50;49.40;;;;;;4912035;29;20164;-76
2022/07/05 03:25:21;;;;;;;0.80;0.70;;;14.50;49.50;;;;;;4919433;29;20413;-77
2022/07/05 03:27:48;;;;;;;0.90;0.70;;;14.50;49.60;;;;;;4922822;29;20171;-77
2022/07/05 03:30:15;;;;;;;1.10;0.90;;;14.40;49.50;;;;;;4922906;29;20046;-76
2022/07/05 03:32:41;;;;;;;1.58;0.95;;;14.40;49.50;;;;;;4928763;29;20151;-77
2022/07/05 03:35:08;;;;;;;1.65;0.60;;;14.40;49.70;;;;;;4926896;29;20781;-78
2022/07/05 03:37:35;;;;;;;2.13;0.80;;;14.30;49.50;;;;;;4927001;29;20398;-77
2022/07/05 03:40:03;;;;;;;0.70;0.63;;;14.30;49.60;;;;;;4907983;29;20043;-77
2022/07/05 03:42:29;;;;;;;2.83;0.88;;;14.20;49.50;;;;;;4925635;29;20040;-77
2022/07/05 03:44:55;;;;;;;1.23;0.80;;;14.20;50.20;;;;;;4915068;29;20044;-78
2022/07/05 03:47:22;;;;;;;0.68;0.60;;;14.20;49.70;;;;;;4935322;29;20040;-76
2022/07/05 03:49:49;;;;;;;2.03;0.75;;;14.20;49.80;;;;;;4939893;29;20422;-76
2022/07/05 03:52:15;;;;;;;1.17;0.68;;;14.10;49.70;;;;;;4918965;29;20055;-78
2022/07/05 03:54:44;;;;;;;1.27;0.80;;;14.10;49.80;;;;;;4931532;29;20040;-76
2022/07/05 03:57:11;;;;;;;1.73;1.00;;;14.10;49.80;;;;;;4923888;29;20066;-77
2022/07/05 03:59:40;;;;;;;0.52;0.43;;;14.10;49.90;;;;;;4928021;29;20099;-76
2022/07/05 04:02:07;;;;;;;2.58;0.60;;;14.10;50.00;;;;;;4928168;29;20453;-76
2022/07/05 04:04:34;;;;;;;1.60;0.80;;;14.00;49.80;;;;;;4929074;29;20031;-77
2022/07/05 04:07:00;;;;;;;0.95;0.82;;;14.00;49.90;;;;;;4921134;29;20451;-75
2022/07/05 04:09:26;;;;;;;1.60;0.70;;;14.00;49.90;;;;;;4930177;29;20505;-77
2022/07/05 04:11:52;;;;;;;1.15;0.65;;;13.90;49.80;;;;;;4928881;29;20046;-77
2022/07/05 04:14:19;;;;;;;0.75;0.60;;;14.00;50.00;;;;;;4923522;29;20510;-76
2022/07/05 04:16:45;;;;;;;1.08;0.63;;;13.90;49.90;;;;;;4925217;29;20032;-77
2022/07/05 04:19:11;;;;;;;0.93;0.77;;;13.90;50.00;;;;;;4918501;29;20090;-75
2022/07/05 04:21:37;;;;;;;1.05;0.60;;;13.90;50.00;;;;;;4917033;29;20584;-76
2022/07/05 04:24:04;;;;;;;0.80;0.80;;;13.90;50.10;;;;;;4914649;29;20503;-77
2022/07/05 04:26:29;;;;;;;0.60;0.60;;;13.90;50.10;;;;;;4910111;29;20039;-77
2022/07/05 04:28:55;;;;;;;1.45;1.00;;;13.80;50.00;;;;;;4904530;29;20039;-76
2022/07/05 04:31:25;;;;;;;0.80;0.70;;;13.80;50.10;;;;;;4925046;29;20032;-77
2022/07/05 04:33:54;;;;;;;0.63;0.50;;;13.80;50.10;;;;;;4927622;29;20032;-76
2022/07/05 04:36:23;;;;;;;1.17;0.63;;;13.80;50.10;;;;;;4920821;29;20091;-77
2022/07/05 04:38:53;;;;;;;0.70;0.55;;;13.80;50.80;;;;;;4913053;29;20035;-76
2022/07/05 04:41:20;;;;;;;2.78;1.52;;;13.90;50.30;;;;;;4925735;29;20039;-76
2022/07/05 04:43:46;;;;;;;1.00;0.63;;;13.80;50.20;;;;;;4932917;29;20047;-77
2022/07/05 04:46:13;;;;;;;0.95;0.47;;;13.80;50.20;;;;;;4917935;28;20031;-75
2022/07/05 04:48:39;;;;;;;0.63;0.47;;;13.90;50.40;;;;;;4922566;29;20031;-75
2022/07/05 04:51:07;;;;;;;0.47;0.47;;;13.90;50.40;;;;;;4923789;29;20039;-77
2022/07/05 04:53:33;;;;;;;0.60;0.60;;;13.90;50.40;;;;;;4927002;29;20035;-76
2022/07/05 04:55:59;;;;;;;3.20;1.60;;;14.00;50.60;;;;;;4943682;28;20062;-78
2022/07/05 04:58:25;;;;;;;0.50;0.50;;;14.00;50.50;;;;;;4940584;28;20027;-77
2022/07/05 05:00:51;;;;;;;1.02;0.63;;;14.10;50.60;;;;;;4942427;29;20379;-76
2022/07/05 05:03:17;;;;;;;1.75;0.50;;;14.10;50.60;;;;;;4918320;29;20107;-77
2022/07/05 05:05:42;;;;;;;1.65;0.60;;;14.20;50.70;;;;;;4943034;28;20031;-76
2022/07/05 05:08:08;;;;;;;0.90;0.60;;;14.20;50.60;;;;;;4940860;29;20027;-79
2022/07/05 05:10:34;;;;;;;0.30;0.30;;;14.30;50.70;;;;;;4942090;29;20549;-78
2022/07/05 05:13:00;;;;;;;0.77;0.70;;;14.30;50.60;;;;;;4937310;29;20039;-77
2022/07/05 05:15:26;;;;;;;1.00;0.45;;;14.40;50.80;;;;;;4920925;29;20497;-77
2022/07/05 05:17:52;;;;;;;0.55;0.47;;;14.40;50.70;;;;;;4919244;29;20039;-78
2022/07/05 05:20:18;;;;;;;1.40;0.60;;;14.50;50.90;;;;;;4933936;28;20278;-77
2022/07/05 05:22:45;;;;;;;1.40;0.77;;;14.50;50.80;;;;;;4921040;29;20055;-77
2022/07/05 05:25:12;;;;;;;0.90;0.50;;;14.60;51.00;;;;;;4932128;28;20035;-77
2022/07/05 05:27:46;;;;;;;0.63;0.50;;;14.70;51.10;;;;;;4937245;28;20110;-77
2022/07/05 05:30:13;;;;;;;0.70;0.40;;;14.80;51.30;;;;;;4918648;28;20043;-77
2022/07/05 05:32:39;;;;;;;1.05;0.60;;;14.90;51.30;;;;;;4917706;28;20046;-76
2022/07/05 05:35:06;;;;;;;0.77;0.50;;;15.00;51.40;;;;;;4936291;28;20032;-78
2022/07/05 05:37:48;;;;;;;2.75;0.70;;;15.10;51.40;;;;;;4937595;28;20093;-76
2022/07/05 05:40:14;;;;;;;0.83;0.67;;;15.30;51.80;;;;;;4935558;28;20028;-76
2022/07/05 05:42:41;;;;;;;0.98;0.60;;;15.40;51.60;;;;;;4901765;29;20378;-81
2022/07/05 05:45:07;;;;;;;0.82;0.70;;;15.60;51.80;;;;;;4938112;28;20584;-79
2022/07/05 05:47:33;;;;;;;0.90;0.80;;;15.80;52.00;;;;;;4918199;29;20028;-81
2022/07/05 05:49:59;;;;;;;0.77;0.68;;;16.00;52.20;;;;;;4936709;28;20509;-80
2022/07/05 05:52:25;;;;;;;1.33;0.85;;;16.20;52.20;;;;;;4952730;28;20050;-79
2022/07/05 05:54:51;;;;;;;0.73;0.60;;;16.50;52.40;;;;;;4927940;29;20393;-82
2022/07/05 05:57:17;;;;;;;1.55;1.13;;;16.70;52.40;;;;;;4940766;28;20517;-80
2022/07/05 05:59:44;;;;;;;1.23;0.70;;;17.00;52.60;;;;;;4932881;29;20122;-80
2022/07/05 06:02:10;;;;;;;2.05;0.75;;;17.30;52.80;;;;;;4946312;28;20163;-82
2022/07/05 06:04:36;;;;;;;3.85;1.05;;;17.60;52.80;;;;;;4945962;28;20803;-80
2022/07/05 06:07:02;;;;;;;1.10;0.50;;;17.90;52.90;;;;;;4937538;29;20063;-80
2022/07/05 06:09:28;;;;;;;1.67;0.93;;;18.20;53.10;;;;;;4941013;28;20109;-77
2022/07/05 06:11:54;;;;;;;1.77;0.82;;;18.50;53.30;;;;;;4941399;28;20552;-80
2022/07/05 06:14:20;;;;;;;1.13;0.80;;;18.80;53.50;;;;;;4946661;28;20421;-79
2022/07/05 06:16:46;;;;;;;1.23;0.95;;;19.10;53.70;;;;;;4938243;28;20169;-78
2022/07/05 06:19:12;;;;;;;1.65;0.82;;;19.40;53.80;;;;;;4932373;29;20122;-80
2022/07/05 06:21:38;;;;;;;1.65;1.27;;;19.60;53.80;;;;;;4948396;29;20417;-81
2022/07/05 06:24:04;;;;;;;8.20;1.33;;;19.90;53.90;;;;;;4945495;28;20471;-80
2022/07/05 06:26:29;;;;;;;2.53;1.27;;;20.10;53.80;;;;;;4944515;28;20027;-78
2022/07/05 06:28:55;;;;;;;3.72;1.50;;;20.40;54.10;;;;;;4936598;28;20383;-78
2022/07/05 06:31:21;;;;;;;2.80;1.35;;;20.70;54.00;;;;;;4944852;28;20023;-84
2022/07/05 06:33:47;;;;;;;2.65;1.45;;;21.00;53.80;;;;;;4939460;28;20024;-82
2022/07/05 06:36:13;;;;;;;3.03;1.42;;;21.50;53.60;;;;;;4928457;29;20413;-80
2022/07/05 06:38:39;;;;;;;2.88;1.65;;;21.90;53.30;;;;;;4941295;28;20529;-79
2022/07/05 06:41:05;;;;;;;2.03;1.17;;;22.30;53.30;;;;;;4939689;29;20194;-80
2022/07/05 06:43:30;;;;;;;2.25;1.60;;;22.70;53.40;;;;;;4911974;29;20122;-79
2022/07/05 06:46:02;;;;;;;1.38;0.80;;;23.20;53.50;;;;;;4911134;29;20118;-80
2022/07/05 06:48:27;;;;;;;2.58;0.90;;;23.50;53.10;;;;;;4934584;28;20476;-80
2022/07/05 06:50:53;;;;;;;2.03;1.23;;;23.70;53.20;;;;;;4924278;28;20028;-79
2022/07/05 06:53:19;;;;;;;1.75;0.80;;;24.00;53.40;;;;;;4921432;29;20028;-79
2022/07/05 06:55:45;;;;;;;1.58;1.13;;;24.50;53.60;;;;;;4942377;28;20047;-80
2022/07/05 06:58:14;;;;;;;2.20;0.98;;;24.90;53.40;;;;;;4941767;28;20027;-79
2022/07/05 07:00:41;;;;;;;1.83;0.80;;;25.40;52.90;;;;;;4940583;28;20032;-80
2022/07/05 07:03:07;;;;;;;1.60;0.73;;;25.90;52.40;;;;;;4944549;28;20028;-81
2022/07/05 07:05:33;;;;;;;2.08;0.80;;;26.30;51.80;;;;;;4919134;28;20087;-81
2022/07/05 07:10:44;;;;;;;2.85;0.95;;;27.00;50.60;;;;;;4945633;28;20118;-79
2022/07/05 07:13:09;;;;;;;2.38;0.90;;;27.50;50.10;;;;;;4929415;28;20036;-79
2022/07/05 07:15:37;;;;;;;1.38;0.90;;;27.70;49.50;;;;;;4944376;28;20043;-79
2022/07/05 07:18:04;;;;;;;2.38;0.57;;;28.00;49.00;;;;;;4934844;28;20028;-78
2022/07/05 07:20:30;;;;;;;1.80;1.13;;;28.30;48.50;;;;;;4929443;29;20510;-80
2022/07/05 07:22:55;;;;;;;1.42;0.90;;;28.60;48.00;;;;;;4950314;28;20074;-80
2022/07/05 07:25:23;;;;;;;2.42;0.82;;;28.80;47.60;;;;;;4943724;28;20039;-79
2022/07/05 07:27:51;;;;;;;2.10;0.90;;;28.90;47.50;;;;;;4944895;29;20594;-83
2022/07/05 07:30:24;;;;;;;1.50;0.77;;;28.90;47.60;;;;;;4929494;28;20418;-82
2022/07/05 07:32:50;;;;;;;;;;;28.90;47.50;;;;;;4943355;28;21381;-82
2022/07/05 07:35:16;;;;;;;4.55;1.33;;;28.70;47.80;;;;;;4952103;28;19922;-84
2022/07/05 07:37:42;;;;;;;5.53;2.13;;;28.80;48.20;;;;;;4932037;29;20126;-79
2022/07/05 07:40:09;;;;;;;1.75;0.90;;;29.00;47.70;;;;;;4937175;28;20036;-81
2022/07/05 07:42:35;;;;;;;1.23;1.08;;;29.50;46.80;;;;;;4946624;28;20038;-82
2022/07/05 07:45:03;;;;;;;2.70;0.75;;;30.00;45.80;;;;;;4943328;28;20266;-81
2022/07/05 07:47:36;;;;;;;1.83;0.90;;;30.50;45.00;;;;;;4947117;28;20043;-80
2022/07/05 07:50:03;;;;;;;3.35;1.38;;;31.00;43.90;;;;;;4922053;29;20072;-81
2022/07/05 07:52:33;;;;;;;3.83;0.93;;;31.20;43.50;;;;;;4943509;28;20035;-80
2022/07/05 07:54:59;;;;;;;1.95;0.80;;;31.30;43.30;;;;;;4939784;28;20082;-80
2022/07/05 07:57:25;;;;;;;0.90;0.60;;;31.40;42.90;;;;;;4928578;29;20039;-80
2022/07/05 07:59:51;;;;;;;1.23;0.73;;;31.50;42.80;;;;;;4936981;28;20099;-80
2022/07/05 08:02:20;;;;;;;2.13;1.20;;;31.80;42.40;;;;;;4942310;28;20365;-78
2022/07/05 08:04:48;;;;;;;1.40;0.70;;;32.20;41.80;;;;;;4922926;29;20051;-78
2022/07/05 08:07:14;;;;;;;2.42;0.75;;;32.60;41.30;;;;;;4931088;28;20115;-80
2022/07/05 08:09:40;;;;;;;4.00;1.08;;;32.60;41.00;;;;;;4946139;29;20035;-79
2022/07/05 08:12:09;;;;;;;1.30;0.88;;;32.50;41.20;;;;;;4925797;29;20028;-79
2022/07/05 08:14:35;;;;;;;2.10;1.35;;;32.30;41.50;;;;;;4941421;29;20035;-79
2022/07/05 08:17:01;;;;;;;1.80;0.80;;;32.10;41.70;;;;;;4945306;29;20366;-79
2022/07/05 08:22:11;;;;;;;2.10;0.88;;;31.70;42.20;;;;;;4948981;29;20094;-79
2022/07/05 08:24:41;;;;;;;1.98;0.95;;;31.50;42.40;;;;;;4922302;29;20115;-79
2022/07/05 08:27:07;;;;;;;3.83;1.25;;;31.40;42.60;;;;;;4935485;29;20039;-79
2022/07/05 08:29:34;;;;;;;1.35;0.70;;;31.20;42.70;;;;;;4929472;29;20027;-78
2022/07/05 08:32:00;;;;;;;1.88;0.85;;;31.00;42.70;;;;;;4944156;29;20035;-77
2022/07/05 08:34:26;;;;;;;2.72;1.38;;;30.90;42.80;;;;;;4916317;29;20039;-80
2022/07/05 08:36:53;;;;;;;3.90;1.10;;;30.80;43.00;;;;;;4949956;29;20477;-79
2022/07/05 08:39:19;;;;;;;4.40;1.02;;;30.70;43.10;;;;;;4942055;29;20071;-80
2022/07/05 08:41:50;;;;;;;2.05;0.90;;;30.60;43.10;;;;;;4930374;29;20126;-84
2022/07/05 08:44:22;;;;;;;4.25;1.20;;;30.50;43.00;;;;;;4931614;29;20139;-80
2022/07/05 08:46:51;;;;;;;3.22;1.20;;;30.30;43.00;;;;;;4945764;29;20118;-79
2022/07/05 08:49:26;;;;;;;1.73;0.75;;;30.20;43.20;;;;;;4909031;29;20055;-79
2022/07/05 08:51:54;;;;;;;2.15;0.70;;;30.10;43.10;;;;;;4939886;28;20114;-80
2022/07/05 08:54:22;;;;;;;4.78;1.40;;;30.10;43.30;;;;;;4912746;29;20031;-79
2022/07/05 08:56:48;;;;;;;1.63;0.68;;;30.10;43.20;;;;;;4956025;28;20043;-77
2022/07/05 08:59:14;;;;;;;2.05;1.10;;;30.10;43.10;;;;;;4941720;28;20039;-79
2022/07/05 09:01:42;;;;;;;3.05;0.80;;;30.20;43.10;;;;;;4926134;29;20110;-76
2022/07/05 09:04:10;;;;;;;2.35;1.00;;;30.20;42.90;;;;;;4926658;29;20027;-76
2022/07/05 09:06:40;;;;;;;1.80;0.50;;;30.30;42.90;;;;;;4926749;29;20145;-75
2022/07/05 09:09:07;;;;;;;2.20;0.93;;;30.30;42.80;;;;;;4932436;29;20114;-75
2022/07/05 09:11:39;;;;;;;1.60;0.80;;;30.20;42.70;;;;;;4926004;29;20512;-75
2022/07/05 09:14:06;;;;;;;;;;;30.30;42.70;;;;;;4941921;28;20042;-75
2022/07/05 09:16:32;;;;;;;2.80;0.95;;;30.30;42.80;;;;;;4926803;29;19923;-76
2022/07/05 09:19:08;;;;;;;3.53;1.38;;;30.30;42.80;;;;;;4942926;29;20031;-78
2022/07/05 09:21:35;;;;;;;1.65;0.98;;;30.30;42.50;;;;;;4940217;29;20030;-76
2022/07/05 09:24:04;;;;;;;2.50;1.10;;;30.20;42.60;;;;;;4927099;29;20425;-77
2022/07/05 09:26:37;;;;;;;1.42;1.02;;;30.20;42.50;;;;;;4929727;29;20279;-75
2022/07/05 09:29:14;;;;;;;2.40;1.05;;;30.30;42.50;;;;;;4920742;29;20047;-77
2022/07/05 09:31:43;;;;;;;2.13;0.90;;;30.30;42.90;;;;;;4925473;29;20110;-77
2022/07/05 09:34:10;;;;;;;3.08;1.10;;;30.40;42.30;;;;;;4931602;29;20550;-76
2022/07/05 09:36:51;;;;;;;1.83;0.77;;;30.50;42.20;;;;;;4947038;29;20138;-76
2022/07/05 09:39:33;;;;;;;2.83;1.27;;;30.70;41.90;;;;;;4940749;29;20052;-80
2022/07/05 09:42:23;;;;;;;1.98;0.90;;;31.00;41.90;;;;;;4910697;29;20046;-80
2022/07/05 09:44:53;;;;;;;1.77;0.80;;;31.20;41.50;;;;;;4934790;29;20067;-79
2022/07/05 09:47:22;;;;;;;2.00;0.93;;;31.40;41.40;;;;;;4943343;29;20063;-78
2022/07/05 09:49:50;;;;;;;1.05;0.70;;;31.40;41.30;;;;;;4942470;29;20126;-80
2022/07/05 09:52:30;;;;;;;5.15;1.05;;;31.50;41.20;;;;;;4944696;29;20039;-80
2022/07/05 09:55:09;;;;;;;1.40;0.80;;;31.70;41.10;;;;;;4914278;29;20031;-80
2022/07/05 09:57:40;;;;;;;1.88;1.13;;;31.70;40.90;;;;;;4956425;28;20046;-77
2022/07/05 10:00:15;;;;;;;3.00;0.80;;;31.80;40.90;;;;;;4928433;29;20039;-78
2022/07/05 10:02:53;;;;;;;1.95;1.20;;;31.80;40.80;;;;;;4939544;29;20126;-77
2022/07/05 10:05:24;;;;;;;3.13;1.15;;;31.80;40.60;;;;;;4942817;29;20036;-76
2022/07/05 10:07:55;;;;;;;2.13;0.88;;;31.80;40.60;;;;;;4931899;29;20126;-79
2022/07/05 10:10:24;;;;;;;1.88;0.90;;;31.90;40.60;;;;;;4943958;29;20046;-79
2022/07/05 10:12:52;;;;;;;2.25;0.90;;;31.90;40.60;;;;;;4911938;29;20118;-78
2022/07/05 10:15:22;;;;;;;2.40;1.27;;;31.90;40.50;;;;;;4945827;29;20089;-78
2022/07/05 10:18:02;;;;;;;4.28;1.15;;;31.90;40.50;;;;;;4936273;29;20043;-77
2022/07/05 10:20:42;;;;;;;5.43;1.90;;;31.90;40.30;;;;;;4917705;29;20083;-78
2022/07/05 10:23:11;;;;;;;2.65;1.20;;;32.00;40.40;;;;;;4946999;29;20043;-77
2022/07/05 10:25:38;;;;;;;3.50;1.60;;;32.00;40.40;;;;;;4913996;29;20117;-76
2022/07/05 10:28:05;;;;;;;1.98;0.90;;;32.20;40.40;;;;;;4946654;29;21204;-78
2022/07/05 10:30:33;;;;;;;2.85;1.00;;;32.20;40.30;;;;;;4938036;29;20330;-78
2022/07/05 10:33:01;;;;;;;5.22;1.25;;;32.20;40.20;;;;;;4945840;29;20027;-77
2022/07/05 10:35:27;;;;;;;3.67;1.45;;;32.30;40.20;;;;;;4938432;28;20053;-78
2022/07/05 10:37:54;;;;;;;3.75;2.05;;;32.40;40.10;;;;;;4944059;29;20152;-79
2022/07/05 10:40:20;;;;;;;4.57;1.40;;;32.50;40.00;;;;;;4912139;29;20397;-77
2022/07/05 10:42:54;;;;;;;2.92;1.08;;;32.60;39.90;;;;;;4925372;29;20042;-77
2022/07/05 10:45:27;;;;;;;2.88;1.60;;;32.60;39.70;;;;;;4940096;29;20051;-78
2022/07/05 10:48:19;;;;;;;3.10;1.27;;;32.80;39.60;;;;;;4928178;29;20032;-79
2022/07/05 10:50:50;;;;;;;2.63;1.10;;;33.20;39.40;;;;;;4944118;29;20294;-79
2022/07/05 10:53:36;;;;;;;6.05;1.88;;;33.70;39.10;;;;;;4938370;29;20032;-78
2022/07/05 10:56:05;;;;;;;3.08;1.30;;;34.00;38.40;;;;;;4920851;28;20054;-78
2022/07/05 10:58:47;;;;;;;3.70;1.33;;;34.30;38.30;;;;;;4944904;28;20118;-78
2022/07/05 11:01:15;;;;;;;2.25;1.38;;;34.60;38.00;;;;;;4927818;29;20059;-79
2022/07/05 11:03:44;;;;;;;1.38;0.95;;;34.90;37.80;;;;;;4927848;29;20039;-78
2022/07/05 11:06:24;;;;;;;3.97;1.77;;;35.10;37.50;;;;;;4943996;29;20031;-79
2022/07/05 11:11:27;;;;;;;3.55;1.30;;;35.20;37.40;;;;;;4942397;29;20494;-79
2022/07/05 11:13:58;;;;;;;3.08;1.20;;;35.10;37.50;;;;;;4926560;29;20134;-79
2022/07/05 11:16:35;;;;;;;3.92;1.17;;;35.10;37.40;;;;;;4918596;29;20134;-83
2022/07/05 11:19:17;;;;;;;5.22;1.23;;;35.00;37.40;;;;;;4938010;29;20287;-77
2022/07/05 11:22:09;;;;;;;4.78;1.75;;;34.90;37.40;;;;;;4928927;29;20201;-82
2022/07/05 11:24:37;;;;;;;7.70;1.58;;;34.70;37.40;;;;;;4899396;29;20040;-77
2022/07/05 11:27:09;;;;;;;3.15;1.20;;;34.70;37.70;;;;;;4947748;29;20050;-78
2022/07/05 11:29:45;;;;;;;;;;;34.60;37.60;;;;;;4924274;29;20043;-77
2022/07/05 11:32:13;;;;;;;2.08;1.30;;;34.50;37.90;;;;;;4942884;29;19915;-79
2022/07/05 11:34:41;;;;;;;3.35;1.67;;;34.40;37.90;;;;;;4948122;29;20081;-76
2022/07/05 11:37:28;;;;;;;2.83;1.13;;;34.30;38.00;;;;;;4945666;29;20039;-76
2022/07/05 11:40:13;;;;;;;2.90;1.20;;;34.20;37.90;;;;;;4922291;29;20027;-76
2022/07/05 11:42:50;;;;;;;2.72;0.95;;;34.10;38.10;;;;;;4952541;28;20035;-80
2022/07/05 11:45:17;;;;;;;1.77;0.90;;;33.90;38.10;;;;;;4948832;28;20055;-77
2022/07/05 11:47:43;;;;;;;4.15;1.65;;;33.90;38.20;;;;;;4962036;29;20000;-81
2022/07/05 11:50:11;;;;;;;4.25;1.67;;;33.90;38.10;;;;;;4963783;29;20023;-80
2022/07/05 11:52:38;;;;;;;3.78;1.10;;;33.90;38.10;;;;;;4953345;29;20023;-80
2022/07/05 11:55:09;;;;;;;4.00;1.00;;;33.90;38.20;;;;;;4959222;29;20035;-80
2022/07/05 11:57:36;;;;;;;2.25;0.82;;;33.80;38.20;;;;;;4966796;29;20035;-79
2022/07/05 12:00:03;;;;;;;4.55;1.20;;;33.90;38.30;;;;;;4945801;29;20036;-84
2022/07/05 12:02:43;;;;;;;3.10;1.10;;;34.10;38.20;;;;;;4955279;29;20065;-77
2022/07/05 12:05:11;;;;;;;3.88;1.15;;;34.30;37.90;;;;;;4962615;29;20552;-75
2022/07/05 12:07:37;;;;;;;4.00;1.00;;;34.30;37.80;;;;;;4961707;29;20031;-75
2022/07/05 12:12:48;;;;;;;4.15;1.40;;;34.30;38.00;;;;;;4960911;29;20039;-77
2022/07/05 12:15:19;;;;;;;3.88;0.98;;;34.20;38.00;;;;;;4963610;29;20034;-77
2022/07/05 12:17:48;;;;;;;1.95;1.08;;;34.10;37.90;;;;;;4950559;29;20212;-77
2022/07/05 12:20:20;;;;;;;2.10;1.00;;;34.10;38.10;;;;;;4962444;29;20054;-77
2022/07/05 12:22:47;;;;;;;4.82;1.30;;;34.00;38.10;;;;;;4967156;29;20027;-76
2022/07/05 12:25:17;;;;;;;2.08;1.27;;;34.00;38.20;;;;;;4964040;29;20374;-78
2022/07/05 12:27:45;;;;;;;3.25;1.00;;;33.90;38.20;;;;;;4967177;29;20034;-81
2022/07/05 12:30:12;;;;;;;3.67;1.20;;;33.90;38.30;;;;;;4940467;29;20055;-78
2022/07/05 12:33:07;;;;;;;2.70;1.20;;;33.90;38.30;;;;;;4950124;29;20446;-77
2022/07/05 12:35:41;;;;;;;3.22;0.90;;;33.90;38.30;;;;;;4939818;29;20049;-76
2022/07/05 12:38:12;;;;;;;2.08;1.08;;;33.90;38.50;;;;;;4948997;29;20408;-78
2022/07/05 12:40:38;;;;;;;3.08;1.05;;;33.80;38.50;;;;;;4942747;29;20031;-79
2022/07/05 12:43:05;;;;;;;2.70;1.20;;;33.80;38.70;;;;;;4911555;29;20066;-77
2022/07/05 12:45:32;;;;;;;1.77;1.05;;;33.70;38.70;;;;;;4929670;29;20502;-78
2022/07/05 12:48:01;;;;;;;3.35;0.90;;;33.60;38.80;;;;;;4948597;29;20035;-80
2022/07/05 12:50:29;;;;;;;3.58;1.20;;;33.50;38.90;;;;;;4943319;29;20039;-77
2022/07/05 12:58:01;;;;;;;2.83;1.20;;;33.40;39.00;;;;;;4915869;29;20235;-79
2022/07/05 12:58:49;;;;;;;1.58;1.00;;;33.30;39.30;;;;;;4943396;28;20189;-79
2022/07/05 13:01:42;;;;;;;2.25;1.17;;;33.40;39.40;;;;;;4944121;28;20859;-81
2022/07/05 13:04:18;;;;;;;1.63;1.00;;;33.70;39.30;;;;;;4945150;28;20584;-78
2022/07/05 13:07:03;;;;;;;2.67;1.10;;;33.90;39.20;;;;;;4945822;28;20114;-79
2022/07/05 13:09:31;;;;;;;1.70;0.77;;;34.10;39.00;;;;;;4921666;29;20054;-77